sensor_id;sensor_type;location;lat;lon;timestamp;temperature;humidity
58096;DHT22;43908;53.038;6.666;2022-08-03T00:00:39;18.20;99.90
58096;DHT22;43908;53.038;6.666;2022-08-03T00:03:05;18.20;99.90
58096;DHT22;43908;53.038;6.666;2022-08-03T00:05:31;18.20;99.90
58096;DHT22;43908;53.038;6.666;2022-08-03T00:08:00;18.10;99.90
58096;DHT22;43908;53.038;6.666;2022-08-03T00:10:26;18.10;99.90
58096;DHT22;43908;53.038;6.666;2022-08-03T00:12:52;18.10;99.90
58096;DHT22;43908;53.038;6.666;2022-08-03T00:15:18;18.10;99.90
58096;DHT22;43908;53.038;6.666;2022-08-03T00:17:45;18.00;99.90
58096;DHT22;43908;53.038;6.666;2022-08-03T00:20:10;18.00;99.90
58096;DHT22;43908;53.038;6.666;2022-08-03T00:22:36;18.00;99.90
58096;DHT22;43908;53.038;6.666;2022-08-03T00:25:02;18.00;99.90
58096;DHT22;43908;53.038;6.666;2022-08-03T00:27:28;17.90;99.90
58096;DHT22;43908;53.038;6.666;2022-08-03T00:29:54;17.90;99.90
58096;DHT22;43908;53.038;6.666;2022-08-03T00:32:19;17.90;99.90
58096;DHT22;43908;53.038;6.666;2022-08-03T00:34:45;17.80;99.90
58096;DHT22;43908;53.038;6.666;2022-08-03T00:37:10;17.80;99.90
58096;DHT22;43908;53.038;6.666;2022-08-03T00:39:36;17.70;99.90
58096;DHT22;43908;53.038;6.666;2022-08-03T00:42:05;17.70;99.90
58096;DHT22;43908;53.038;6.666;2022-08-03T00:44:31;17.70;99.90
58096;DHT22;43908;53.038;6.666;2022-08-03T00:46:56;17.70;99.90
58096;DHT22;43908;53.038;6.666;2022-08-03T00:49:22;17.70;99.90
58096;DHT22;43908;53.038;6.666;2022-08-03T00:51:48;17.70;99.90
58096;DHT22;43908;53.038;6.666;2022-08-03T00:54:16;17.60;99.90
58096;DHT22;43908;53.038;6.666;2022-08-03T00:56:42;17.60;99.90
58096;DHT22;43908;53.038;6.666;2022-08-03T00:59:09;17.60;99.90
58096;DHT22;43908;53.038;6.666;2022-08-03T01:01:35;17.60;99.90
58096;DHT22;43908;53.038;6.666;2022-08-03T01:04:00;17.60;99.90
58096;DHT22;43908;53.038;6.666;2022-08-03T01:06:40;17.60;99.90
58096;DHT22;43908;53.038;6.666;2022-08-03T01:09:54;17.50;99.90
58096;DHT22;43908;53.038;6.666;2022-08-03T01:12:31;17.50;99.90
58096;DHT22;43908;53.038;6.666;2022-08-03T01:18:21;17.50;99.90
58096;DHT22;43908;53.038;6.666;2022-08-03T01:20:54;17.50;99.90
58096;DHT22;43908;53.038;6.666;2022-08-03T01:23:36;17.50;99.90
58096;DHT22;43908;53.038;6.666;2022-08-03T01:26:24;17.50;99.90
58096;DHT22;43908;53.038;6.666;2022-08-03T01:32:00;17.50;99.90
58096;DHT22;43908;53.038;6.666;2022-08-03T01:34:31;17.50;99.90
58096;DHT22;43908;53.038;6.666;2022-08-03T01:36:58;17.50;99.90
58096;DHT22;43908;53.038;6.666;2022-08-03T01:39:28;17.50;99.90
58096;DHT22;43908;53.038;6.666;2022-08-03T01:41:59;17.40;99.90
58096;DHT22;43908;53.038;6.666;2022-08-03T01:44:29;17.50;99.90
58096;DHT22;43908;53.038;6.666;2022-08-03T01:47:00;17.50;99.90
58096;DHT22;43908;53.038;6.666;2022-08-03T01:49:32;17.50;99.90
58096;DHT22;43908;53.038;6.666;2022-08-03T01:51:58;17.50;99.90
58096;DHT22;43908;53.038;6.666;2022-08-03T01:54:25;17.50;99.90
58096;DHT22;43908;53.038;6.666;2022-08-03T01:56:53;17.50;99.90
58096;DHT22;43908;53.038;6.666;2022-08-03T01:59:21;17.40;99.90
58096;DHT22;43908;53.038;6.666;2022-08-03T02:01:48;17.40;99.90
58096;DHT22;43908;53.038;6.666;2022-08-03T02:04:17;17.40;99.90
58096;DHT22;43908;53.038;6.666;2022-08-03T02:06:44;17.40;99.90
58096;DHT22;43908;53.038;6.666;2022-08-03T02:09:12;17.40;99.90
58096;DHT22;43908;53.038;6.666;2022-08-03T02:11:38;17.40;99.90
58096;DHT22;43908;53.038;6.666;2022-08-03T02:14:05;17.40;99.90
58096;DHT22;43908;53.038;6.666;2022-08-03T02:16:32;17.40;99.90
58096;DHT22;43908;53.038;6.666;2022-08-03T02:19:00;17.40;99.90
58096;DHT22;43908;53.038;6.666;2022-08-03T02:21:28;17.30;99.90
58096;DHT22;43908;53.038;6.666;2022-08-03T02:23:54;17.30;99.90
58096;DHT22;43908;53.038;6.666;2022-08-03T02:26:21;17.30;99.90
58096;DHT22;43908;53.038;6.666;2022-08-03T02:28:51;17.30;99.90
58096;DHT22;43908;53.038;6.666;2022-08-03T02:31:23;17.20;99.90
58096;DHT22;43908;53.038;6.666;2022-08-03T02:33:55;17.20;99.90
58096;DHT22;43908;53.038;6.666;2022-08-03T02:36:26;17.20;99.90
58096;DHT22;43908;53.038;6.666;2022-08-03T02:38:56;17.20;99.90
58096;DHT22;43908;53.038;6.666;2022-08-03T02:41:27;17.20;99.90
58096;DHT22;43908;53.038;6.666;2022-08-03T02:43:55;17.20;99.90
58096;DHT22;43908;53.038;6.666;2022-08-03T02:46:27;17.20;99.90
58096;DHT22;43908;53.038;6.666;2022-08-03T02:48:55;17.20;99.90
58096;DHT22;43908;53.038;6.666;2022-08-03T02:51:22;17.20;99.90
58096;DHT22;43908;53.038;6.666;2022-08-03T02:53:49;17.20;99.90
58096;DHT22;43908;53.038;6.666;2022-08-03T02:56:16;17.20;99.90
58096;DHT22;43908;53.038;6.666;2022-08-03T02:58:43;17.20;99.90
58096;DHT22;43908;53.038;6.666;2022-08-03T03:01:10;17.10;99.90
58096;DHT22;43908;53.038;6.666;2022-08-03T03:03:37;17.20;99.90
58096;DHT22;43908;53.038;6.666;2022-08-03T03:06:03;17.10;99.90
58096;DHT22;43908;53.038;6.666;2022-08-03T03:08:30;17.10;99.90
58096;DHT22;43908;53.038;6.666;2022-08-03T03:10:59;17.10;99.90
58096;DHT22;43908;53.038;6.666;2022-08-03T03:13:29;17.10;99.90
58096;DHT22;43908;53.038;6.666;2022-08-03T03:15:56;17.10;99.90
58096;DHT22;43908;53.038;6.666;2022-08-03T03:18:24;17.10;99.90
58096;DHT22;43908;53.038;6.666;2022-08-03T03:20:52;17.10;99.90
58096;DHT22;43908;53.038;6.666;2022-08-03T03:23:20;17.10;99.90
58096;DHT22;43908;53.038;6.666;2022-08-03T03:25:46;17.10;99.90
58096;DHT22;43908;53.038;6.666;2022-08-03T03:28:13;17.10;99.90
58096;DHT22;43908;53.038;6.666;2022-08-03T03:30:39;17.10;99.90
58096;DHT22;43908;53.038;6.666;2022-08-03T03:33:05;17.10;99.90
58096;DHT22;43908;53.038;6.666;2022-08-03T03:35:33;17.10;99.90
58096;DHT22;43908;53.038;6.666;2022-08-03T03:37:59;17.00;99.90
58096;DHT22;43908;53.038;6.666;2022-08-03T03:40:26;17.00;99.90
58096;DHT22;43908;53.038;6.666;2022-08-03T03:42:52;17.00;99.90
58096;DHT22;43908;53.038;6.666;2022-08-03T03:45:18;17.00;99.90
58096;DHT22;43908;53.038;6.666;2022-08-03T03:47:44;17.00;99.90
58096;DHT22;43908;53.038;6.666;2022-08-03T03:50:10;17.00;99.90
58096;DHT22;43908;53.038;6.666;2022-08-03T03:52:36;17.00;99.90
58096;DHT22;43908;53.038;6.666;2022-08-03T03:55:02;17.00;99.90
58096;DHT22;43908;53.038;6.666;2022-08-03T03:57:28;17.10;99.90
58096;DHT22;43908;53.038;6.666;2022-08-03T03:59:54;17.10;99.90
58096;DHT22;43908;53.038;6.666;2022-08-03T04:02:19;17.00;99.90
58096;DHT22;43908;53.038;6.666;2022-08-03T04:04:45;17.00;99.90
58096;DHT22;43908;53.038;6.666;2022-08-03T04:07:37;17.10;99.90
58096;DHT22;43908;53.038;6.666;2022-08-03T04:10:30;17.10;99.90
58096;DHT22;43908;53.038;6.666;2022-08-03T04:13:17;17.10;99.90
58096;DHT22;43908;53.038;6.666;2022-08-03T04:15:46;17.10;99.90
58096;DHT22;43908;53.038;6.666;2022-08-03T04:18:13;17.10;99.90
58096;DHT22;43908;53.038;6.666;2022-08-03T04:20:43;17.10;99.90
58096;DHT22;43908;53.038;6.666;2022-08-03T04:23:10;17.10;99.90
58096;DHT22;43908;53.038;6.666;2022-08-03T04:25:38;17.10;99.90
58096;DHT22;43908;53.038;6.666;2022-08-03T04:28:04;17.20;99.90
58096;DHT22;43908;53.038;6.666;2022-08-03T04:30:32;17.20;99.90
58096;DHT22;43908;53.038;6.666;2022-08-03T04:33:01;17.20;99.90
58096;DHT22;43908;53.038;6.666;2022-08-03T04:35:30;17.20;99.90
58096;DHT22;43908;53.038;6.666;2022-08-03T04:38:01;17.20;99.90
58096;DHT22;43908;53.038;6.666;2022-08-03T04:40:33;17.30;99.90
58096;DHT22;43908;53.038;6.666;2022-08-03T04:42:59;17.30;99.90
58096;DHT22;43908;53.038;6.666;2022-08-03T04:45:30;17.30;99.90
58096;DHT22;43908;53.038;6.666;2022-08-03T04:47:57;17.40;99.90
58096;DHT22;43908;53.038;6.666;2022-08-03T04:50:24;17.40;99.90
58096;DHT22;43908;53.038;6.666;2022-08-03T04:52:52;17.40;99.90
58096;DHT22;43908;53.038;6.666;2022-08-03T04:55:31;17.50;99.90
58096;DHT22;43908;53.038;6.666;2022-08-03T04:57:58;17.60;99.90
58096;DHT22;43908;53.038;6.666;2022-08-03T05:00:24;17.60;99.90
58096;DHT22;43908;53.038;6.666;2022-08-03T05:02:50;17.70;99.90
58096;DHT22;43908;53.038;6.666;2022-08-03T05:05:16;17.80;99.90
58096;DHT22;43908;53.038;6.666;2022-08-03T05:07:42;17.90;99.90
58096;DHT22;43908;53.038;6.666;2022-08-03T05:10:09;17.90;99.90
58096;DHT22;43908;53.038;6.666;2022-08-03T05:12:35;18.00;99.90
58096;DHT22;43908;53.038;6.666;2022-08-03T05:15:01;18.10;99.90
58096;DHT22;43908;53.038;6.666;2022-08-03T05:17:27;18.20;99.90
58096;DHT22;43908;53.038;6.666;2022-08-03T05:19:53;18.20;99.90
58096;DHT22;43908;53.038;6.666;2022-08-03T05:22:20;18.30;99.90
58096;DHT22;43908;53.038;6.666;2022-08-03T05:24:45;18.50;99.90
58096;DHT22;43908;53.038;6.666;2022-08-03T05:27:11;18.60;99.90
58096;DHT22;43908;53.038;6.666;2022-08-03T05:29:42;18.70;99.90
58096;DHT22;43908;53.038;6.666;2022-08-03T05:32:07;18.80;99.90
58096;DHT22;43908;53.038;6.666;2022-08-03T05:34:33;18.90;99.90
58096;DHT22;43908;53.038;6.666;2022-08-03T05:36:59;19.00;99.90
58096;DHT22;43908;53.038;6.666;2022-08-03T05:39:24;19.20;99.90
58096;DHT22;43908;53.038;6.666;2022-08-03T05:41:50;19.30;99.90
58096;DHT22;43908;53.038;6.666;2022-08-03T05:44:15;19.40;99.90
58096;DHT22;43908;53.038;6.666;2022-08-03T05:46:41;19.50;99.90
58096;DHT22;43908;53.038;6.666;2022-08-03T05:49:07;19.60;99.90
58096;DHT22;43908;53.038;6.666;2022-08-03T05:51:32;19.70;99.90
58096;DHT22;43908;53.038;6.666;2022-08-03T05:53:58;19.80;99.90
58096;DHT22;43908;53.038;6.666;2022-08-03T05:56:23;19.90;99.90
58096;DHT22;43908;53.038;6.666;2022-08-03T05:58:52;20.10;99.90
58096;DHT22;43908;53.038;6.666;2022-08-03T06:01:19;20.90;99.90
58096;DHT22;43908;53.038;6.666;2022-08-03T06:03:49;21.20;99.90
58096;DHT22;43908;53.038;6.666;2022-08-03T06:06:15;21.90;99.90
58096;DHT22;43908;53.038;6.666;2022-08-03T06:08:42;23.10;99.90
58096;DHT22;43908;53.038;6.666;2022-08-03T06:11:08;23.20;99.90
58096;DHT22;43908;53.038;6.666;2022-08-03T06:13:34;23.70;99.90
58096;DHT22;43908;53.038;6.666;2022-08-03T06:16:00;24.50;99.90
58096;DHT22;43908;53.038;6.666;2022-08-03T06:18:26;25.40;99.90
58096;DHT22;43908;53.038;6.666;2022-08-03T06:20:52;26.40;99.90
58096;DHT22;43908;53.038;6.666;2022-08-03T06:25:44;26.90;99.70
58096;DHT22;43908;53.038;6.666;2022-08-03T06:28:10;27.60;96.80
58096;DHT22;43908;53.038;6.666;2022-08-03T06:30:39;27.60;97.40
58096;DHT22;43908;53.038;6.666;2022-08-03T06:33:04;28.20;97.70
58096;DHT22;43908;53.038;6.666;2022-08-03T06:35:30;28.40;97.40
58096;DHT22;43908;53.038;6.666;2022-08-03T06:37:55;28.70;96.20
58096;DHT22;43908;53.038;6.666;2022-08-03T06:40:23;28.60;95.90
58096;DHT22;43908;53.038;6.666;2022-08-03T06:43:00;28.40;96.40
58096;DHT22;43908;53.038;6.666;2022-08-03T06:45:27;28.80;94.80
58096;DHT22;43908;53.038;6.666;2022-08-03T06:50:33;29.00;94.60
58096;DHT22;43908;53.038;6.666;2022-08-03T06:53:00;29.00;94.40
58096;DHT22;43908;53.038;6.666;2022-08-03T06:55:26;29.00;94.30
58096;DHT22;43908;53.038;6.666;2022-08-03T06:57:51;29.20;93.70
58096;DHT22;43908;53.038;6.666;2022-08-03T07:00:17;28.90;94.40
58096;DHT22;43908;53.038;6.666;2022-08-03T07:02:43;28.70;93.30
58096;DHT22;43908;53.038;6.666;2022-08-03T07:05:10;28.90;94.50
58096;DHT22;43908;53.038;6.666;2022-08-03T07:07:36;29.30;93.60
58096;DHT22;43908;53.038;6.666;2022-08-03T07:10:03;29.80;93.00
58096;DHT22;43908;53.038;6.666;2022-08-03T07:12:30;29.50;93.00
58096;DHT22;43908;53.038;6.666;2022-08-03T07:14:57;29.30;93.20
58096;DHT22;43908;53.038;6.666;2022-08-03T07:17:23;29.60;92.60
58096;DHT22;43908;53.038;6.666;2022-08-03T07:19:49;29.50;92.80
58096;DHT22;43908;53.038;6.666;2022-08-03T07:22:14;29.50;93.40
58096;DHT22;43908;53.038;6.666;2022-08-03T07:24:40;30.00;92.30
58096;DHT22;43908;53.038;6.666;2022-08-03T07:27:09;30.30;91.80
58096;DHT22;43908;53.038;6.666;2022-08-03T07:29:35;30.80;91.60
58096;DHT22;43908;53.038;6.666;2022-08-03T07:32:04;31.60;90.70
58096;DHT22;43908;53.038;6.666;2022-08-03T07:34:30;32.00;89.60
58096;DHT22;43908;53.038;6.666;2022-08-03T07:36:56;32.50;85.60
58096;DHT22;43908;53.038;6.666;2022-08-03T07:39:22;32.90;87.40
58096;DHT22;43908;53.038;6.666;2022-08-03T07:41:48;32.90;86.70
58096;DHT22;43908;53.038;6.666;2022-08-03T07:44:19;33.30;87.10
58096;DHT22;43908;53.038;6.666;2022-08-03T07:46:45;34.20;96.90
58096;DHT22;43908;53.038;6.666;2022-08-03T07:49:10;34.00;81.90
58096;DHT22;43908;53.038;6.666;2022-08-03T07:51:36;33.90;79.40
58096;DHT22;43908;53.038;6.666;2022-08-03T07:54:02;33.90;81.30
58096;DHT22;43908;53.038;6.666;2022-08-03T07:56:28;34.00;81.10
58096;DHT22;43908;53.038;6.666;2022-08-03T07:58:54;34.20;81.20
58096;DHT22;43908;53.038;6.666;2022-08-03T08:01:20;34.20;78.50
58096;DHT22;43908;53.038;6.666;2022-08-03T08:03:47;33.60;79.70
58096;DHT22;43908;53.038;6.666;2022-08-03T08:06:13;33.30;77.30
58096;DHT22;43908;53.038;6.666;2022-08-03T08:08:39;32.40;80.90
58096;DHT22;43908;53.038;6.666;2022-08-03T08:11:04;31.20;83.70
58096;DHT22;43908;53.038;6.666;2022-08-03T08:13:30;30.00;86.60
58096;DHT22;43908;53.038;6.666;2022-08-03T08:15:56;29.60;87.10
58096;DHT22;43908;53.038;6.666;2022-08-03T08:18:22;29.10;89.60
58096;DHT22;43908;53.038;6.666;2022-08-03T08:20:48;28.80;90.40
58096;DHT22;43908;53.038;6.666;2022-08-03T08:23:14;28.30;91.00
58096;DHT22;43908;53.038;6.666;2022-08-03T08:25:40;28.10;91.40
58096;DHT22;43908;53.038;6.666;2022-08-03T08:28:05;27.80;92.20
58096;DHT22;43908;53.038;6.666;2022-08-03T08:30:32;27.50;91.80
58096;DHT22;43908;53.038;6.666;2022-08-03T08:32:58;27.30;92.90
58096;DHT22;43908;53.038;6.666;2022-08-03T08:35:24;27.10;93.50
58096;DHT22;43908;53.038;6.666;2022-08-03T08:37:50;26.90;94.00
58096;DHT22;43908;53.038;6.666;2022-08-03T08:40:15;26.80;94.80
58096;DHT22;43908;53.038;6.666;2022-08-03T08:42:42;26.90;94.90
58096;DHT22;43908;53.038;6.666;2022-08-03T08:45:09;26.80;95.60
58096;DHT22;43908;53.038;6.666;2022-08-03T08:47:38;26.60;95.80
58096;DHT22;43908;53.038;6.666;2022-08-03T08:50:05;26.60;95.80
58096;DHT22;43908;53.038;6.666;2022-08-03T08:52:33;26.60;95.10
58096;DHT22;43908;53.038;6.666;2022-08-03T08:55:02;26.60;96.20
58096;DHT22;43908;53.038;6.666;2022-08-03T08:57:33;26.60;96.40
58096;DHT22;43908;53.038;6.666;2022-08-03T09:00:00;26.70;97.20
58096;DHT22;43908;53.038;6.666;2022-08-03T09:02:29;26.80;95.80
58096;DHT22;43908;53.038;6.666;2022-08-03T09:04:55;26.60;97.20
58096;DHT22;43908;53.038;6.666;2022-08-03T09:07:21;26.60;97.20
58096;DHT22;43908;53.038;6.666;2022-08-03T09:09:47;26.70;96.10
58096;DHT22;43908;53.038;6.666;2022-08-03T09:12:12;26.80;95.20
58096;DHT22;43908;53.038;6.666;2022-08-03T09:14:38;26.80;95.90
58096;DHT22;43908;53.038;6.666;2022-08-03T09:17:04;26.80;95.90
58096;DHT22;43908;53.038;6.666;2022-08-03T09:19:31;26.80;97.20
58096;DHT22;43908;53.038;6.666;2022-08-03T09:22:14;26.90;95.90
58096;DHT22;43908;53.038;6.666;2022-08-03T09:25:13;27.00;96.30
58096;DHT22;43908;53.038;6.666;2022-08-03T09:27:43;27.30;96.60
58096;DHT22;43908;53.038;6.666;2022-08-03T09:30:16;27.40;96.30
58096;DHT22;43908;53.038;6.666;2022-08-03T09:32:42;27.40;96.20
58096;DHT22;43908;53.038;6.666;2022-08-03T09:35:11;27.50;94.80
58096;DHT22;43908;53.038;6.666;2022-08-03T09:37:37;27.60;95.50
58096;DHT22;43908;53.038;6.666;2022-08-03T09:40:03;27.50;95.00
58096;DHT22;43908;53.038;6.666;2022-08-03T09:42:29;27.60;95.70
58096;DHT22;43908;53.038;6.666;2022-08-03T09:44:55;27.50;95.10
58096;DHT22;43908;53.038;6.666;2022-08-03T09:47:34;27.50;94.00
58096;DHT22;43908;53.038;6.666;2022-08-03T09:50:04;27.40;95.90
58096;DHT22;43908;53.038;6.666;2022-08-03T09:52:33;27.40;96.70
58096;DHT22;43908;53.038;6.666;2022-08-03T09:55:00;27.40;97.30
58096;DHT22;43908;53.038;6.666;2022-08-03T09:57:27;27.50;96.50
58096;DHT22;43908;53.038;6.666;2022-08-03T10:00:05;27.50;95.30
58096;DHT22;43908;53.038;6.666;2022-08-03T10:02:31;27.60;96.10
58096;DHT22;43908;53.038;6.666;2022-08-03T10:04:57;27.70;94.80
58096;DHT22;43908;53.038;6.666;2022-08-03T10:07:23;27.80;93.30
58096;DHT22;43908;53.038;6.666;2022-08-03T10:09:59;27.80;94.40
58096;DHT22;43908;53.038;6.666;2022-08-03T10:12:26;27.80;95.10
58096;DHT22;43908;53.038;6.666;2022-08-03T10:14:52;27.80;94.20
58096;DHT22;43908;53.038;6.666;2022-08-03T10:17:20;27.80;94.30
58096;DHT22;43908;53.038;6.666;2022-08-03T10:19:46;27.80;93.60
58096;DHT22;43908;53.038;6.666;2022-08-03T10:22:21;27.80;93.90
58096;DHT22;43908;53.038;6.666;2022-08-03T10:27:34;28.00;95.30
58096;DHT22;43908;53.038;6.666;2022-08-03T10:30:03;28.10;93.70
58096;DHT22;43908;53.038;6.666;2022-08-03T10:32:51;28.10;93.90
58096;DHT22;43908;53.038;6.666;2022-08-03T10:35:20;28.10;94.90
58096;DHT22;43908;53.038;6.666;2022-08-03T10:40:27;28.20;94.70
58096;DHT22;43908;53.038;6.666;2022-08-03T10:42:55;28.40;94.30
58096;DHT22;43908;53.038;6.666;2022-08-03T10:45:27;28.50;93.20
58096;DHT22;43908;53.038;6.666;2022-08-03T10:47:56;28.50;93.50
58096;DHT22;43908;53.038;6.666;2022-08-03T10:50:23;28.60;93.60
58096;DHT22;43908;53.038;6.666;2022-08-03T10:52:57;28.70;93.60
58096;DHT22;43908;53.038;6.666;2022-08-03T10:55:40;28.80;93.30
58096;DHT22;43908;53.038;6.666;2022-08-03T11:01:12;28.90;93.30
58096;DHT22;43908;53.038;6.666;2022-08-03T11:06:25;29.00;91.90
58096;DHT22;43908;53.038;6.666;2022-08-03T11:09:15;28.90;93.20
58096;DHT22;43908;53.038;6.666;2022-08-03T11:11:43;28.80;92.50
58096;DHT22;43908;53.038;6.666;2022-08-03T11:14:10;28.70;93.10
58096;DHT22;43908;53.038;6.666;2022-08-03T11:16:39;28.70;92.30
58096;DHT22;43908;53.038;6.666;2022-08-03T11:19:10;28.70;93.20
58096;DHT22;43908;53.038;6.666;2022-08-03T11:27:23;28.60;92.50
58096;DHT22;43908;53.038;6.666;2022-08-03T11:35:16;28.50;94.10
58096;DHT22;43908;53.038;6.666;2022-08-03T11:46:09;28.60;92.90
58096;DHT22;43908;53.038;6.666;2022-08-03T11:48:38;28.60;93.60
58096;DHT22;43908;53.038;6.666;2022-08-03T11:51:06;28.50;92.20
58096;DHT22;43908;53.038;6.666;2022-08-03T11:53:32;28.30;93.20
58096;DHT22;43908;53.038;6.666;2022-08-03T11:56:00;28.30;93.40
58096;DHT22;43908;53.038;6.666;2022-08-03T11:58:26;28.40;93.90
58096;DHT22;43908;53.038;6.666;2022-08-03T12:00:56;28.50;92.50
58096;DHT22;43908;53.038;6.666;2022-08-03T12:03:31;28.60;92.30
58096;DHT22;43908;53.038;6.666;2022-08-03T12:05:57;28.70;92.20
58096;DHT22;43908;53.038;6.666;2022-08-03T12:10:51;28.90;93.30
58096;DHT22;43908;53.038;6.666;2022-08-03T12:13:18;29.00;92.10
58096;DHT22;43908;53.038;6.666;2022-08-03T12:15:52;29.10;91.70
58096;DHT22;43908;53.038;6.666;2022-08-03T12:18:20;29.20;92.40
58096;DHT22;43908;53.038;6.666;2022-08-03T12:20:49;29.30;90.70
58096;DHT22;43908;53.038;6.666;2022-08-03T12:23:16;29.40;91.40
58096;DHT22;43908;53.038;6.666;2022-08-03T12:25:43;29.40;91.00
58096;DHT22;43908;53.038;6.666;2022-08-03T12:28:15;29.50;90.30
58096;DHT22;43908;53.038;6.666;2022-08-03T12:30:42;29.50;90.10
58096;DHT22;43908;53.038;6.666;2022-08-03T12:33:16;29.50;89.20
58096;DHT22;43908;53.038;6.666;2022-08-03T12:35:45;29.50;88.80
58096;DHT22;43908;53.038;6.666;2022-08-03T12:38:11;29.50;88.50
58096;DHT22;43908;53.038;6.666;2022-08-03T12:40:40;29.50;88.10
58096;DHT22;43908;53.038;6.666;2022-08-03T12:43:10;29.60;89.10
58096;DHT22;43908;53.038;6.666;2022-08-03T12:45:36;29.60;83.50
58096;DHT22;43908;53.038;6.666;2022-08-03T12:48:02;29.60;84.50
58096;DHT22;43908;53.038;6.666;2022-08-03T12:50:34;29.50;84.90
58096;DHT22;43908;53.038;6.666;2022-08-03T12:53:02;29.60;85.80
58096;DHT22;43908;53.038;6.666;2022-08-03T12:55:29;29.60;86.10
58096;DHT22;43908;53.038;6.666;2022-08-03T12:58:01;29.70;85.30
58096;DHT22;43908;53.038;6.666;2022-08-03T13:00:27;29.70;83.60
58096;DHT22;43908;53.038;6.666;2022-08-03T13:05:27;29.80;84.90
58096;DHT22;43908;53.038;6.666;2022-08-03T13:07:53;29.80;84.20
58096;DHT22;43908;53.038;6.666;2022-08-03T13:10:31;29.80;83.50
58096;DHT22;43908;53.038;6.666;2022-08-03T13:12:58;29.80;81.70
58096;DHT22;43908;53.038;6.666;2022-08-03T13:15:28;29.90;81.60
58096;DHT22;43908;53.038;6.666;2022-08-03T13:17:55;30.00;82.40
58096;DHT22;43908;53.038;6.666;2022-08-03T13:20:21;30.10;82.90
58096;DHT22;43908;53.038;6.666;2022-08-03T13:22:47;30.20;83.20
58096;DHT22;43908;53.038;6.666;2022-08-03T13:25:13;30.20;82.40
58096;DHT22;43908;53.038;6.666;2022-08-03T13:27:39;30.30;81.70
58096;DHT22;43908;53.038;6.666;2022-08-03T13:30:06;30.40;82.80
58096;DHT22;43908;53.038;6.666;2022-08-03T13:32:32;30.30;83.60
58096;DHT22;43908;53.038;6.666;2022-08-03T13:34:58;30.40;80.70
58096;DHT22;43908;53.038;6.666;2022-08-03T13:37:24;30.30;80.70
58096;DHT22;43908;53.038;6.666;2022-08-03T13:39:50;30.40;81.70
58096;DHT22;43908;53.038;6.666;2022-08-03T13:42:16;30.40;82.10
58096;DHT22;43908;53.038;6.666;2022-08-03T13:44:41;30.50;82.60
58096;DHT22;43908;53.038;6.666;2022-08-03T13:47:07;30.50;80.20
58096;DHT22;43908;53.038;6.666;2022-08-03T13:49:33;30.50;81.80
58096;DHT22;43908;53.038;6.666;2022-08-03T13:51:58;30.40;82.20
58096;DHT22;43908;53.038;6.666;2022-08-03T13:54:24;30.40;82.80
58096;DHT22;43908;53.038;6.666;2022-08-03T13:56:49;30.40;83.70
58096;DHT22;43908;53.038;6.666;2022-08-03T13:59:19;30.30;82.50
58096;DHT22;43908;53.038;6.666;2022-08-03T14:01:46;30.30;83.20
58096;DHT22;43908;53.038;6.666;2022-08-03T14:04:12;30.30;81.40
58096;DHT22;43908;53.038;6.666;2022-08-03T14:06:38;30.30;80.10
58096;DHT22;43908;53.038;6.666;2022-08-03T14:09:03;30.40;82.70
58096;DHT22;43908;53.038;6.666;2022-08-03T14:11:29;30.50;82.50
58096;DHT22;43908;53.038;6.666;2022-08-03T14:13:55;30.50;81.70
58096;DHT22;43908;53.038;6.666;2022-08-03T14:16:20;30.50;81.60
58096;DHT22;43908;53.038;6.666;2022-08-03T14:18:46;30.50;82.50
58096;DHT22;43908;53.038;6.666;2022-08-03T14:21:12;30.50;80.70
58096;DHT22;43908;53.038;6.666;2022-08-03T14:23:38;30.60;82.20
58096;DHT22;43908;53.038;6.666;2022-08-03T14:26:05;30.50;80.20
58096;DHT22;43908;53.038;6.666;2022-08-03T14:28:31;30.60;77.10
58096;DHT22;43908;53.038;6.666;2022-08-03T14:30:57;30.70;81.10
58096;DHT22;43908;53.038;6.666;2022-08-03T14:33:23;30.80;78.30
58096;DHT22;43908;53.038;6.666;2022-08-03T14:35:49;30.80;79.00
58096;DHT22;43908;53.038;6.666;2022-08-03T14:38:16;30.70;78.30
58096;DHT22;43908;53.038;6.666;2022-08-03T14:40:42;30.70;77.40
58096;DHT22;43908;53.038;6.666;2022-08-03T14:43:08;30.60;78.60
58096;DHT22;43908;53.038;6.666;2022-08-03T14:45:33;30.60;79.00
58096;DHT22;43908;53.038;6.666;2022-08-03T14:47:59;30.60;79.50
58096;DHT22;43908;53.038;6.666;2022-08-03T14:50:25;30.60;79.70
58096;DHT22;43908;53.038;6.666;2022-08-03T14:52:53;30.60;80.00
58096;DHT22;43908;53.038;6.666;2022-08-03T14:55:18;30.70;80.60
58096;DHT22;43908;53.038;6.666;2022-08-03T14:57:44;30.90;80.20
58096;DHT22;43908;53.038;6.666;2022-08-03T15:00:10;30.90;79.40
58096;DHT22;43908;53.038;6.666;2022-08-03T15:02:35;30.90;75.40
58096;DHT22;43908;53.038;6.666;2022-08-03T15:05:01;30.90;76.40
58096;DHT22;43908;53.038;6.666;2022-08-03T15:07:27;30.90;76.20
58096;DHT22;43908;53.038;6.666;2022-08-03T15:09:53;30.90;72.50
58096;DHT22;43908;53.038;6.666;2022-08-03T15:12:18;30.80;76.60
58096;DHT22;43908;53.038;6.666;2022-08-03T15:14:44;30.70;75.80
58096;DHT22;43908;53.038;6.666;2022-08-03T15:17:09;30.70;77.50
58096;DHT22;43908;53.038;6.666;2022-08-03T15:19:35;30.60;78.60
58096;DHT22;43908;53.038;6.666;2022-08-03T15:22:01;30.50;78.60
58096;DHT22;43908;53.038;6.666;2022-08-03T15:24:26;30.50;77.50
58096;DHT22;43908;53.038;6.666;2022-08-03T15:26:52;30.40;77.70
58096;DHT22;43908;53.038;6.666;2022-08-03T15:29:18;30.40;80.30
58096;DHT22;43908;53.038;6.666;2022-08-03T15:31:44;30.30;80.30
58096;DHT22;43908;53.038;6.666;2022-08-03T15:34:09;30.30;77.20
58096;DHT22;43908;53.038;6.666;2022-08-03T15:36:36;30.40;80.50
58096;DHT22;43908;53.038;6.666;2022-08-03T15:39:02;30.40;77.60
58096;DHT22;43908;53.038;6.666;2022-08-03T15:41:28;30.40;77.80
58096;DHT22;43908;53.038;6.666;2022-08-03T15:43:54;30.40;78.90
58096;DHT22;43908;53.038;6.666;2022-08-03T15:46:19;30.50;75.30
58096;DHT22;43908;53.038;6.666;2022-08-03T15:48:45;30.50;79.40
58096;DHT22;43908;53.038;6.666;2022-08-03T15:51:11;30.50;78.60
58096;DHT22;43908;53.038;6.666;2022-08-03T15:53:37;30.60;80.90
58096;DHT22;43908;53.038;6.666;2022-08-03T15:56:03;30.70;77.10
58096;DHT22;43908;53.038;6.666;2022-08-03T15:58:29;30.80;79.60
58096;DHT22;43908;53.038;6.666;2022-08-03T16:00:56;30.80;79.50
58096;DHT22;43908;53.038;6.666;2022-08-03T16:03:22;30.80;78.00
58096;DHT22;43908;53.038;6.666;2022-08-03T16:05:48;30.70;78.50
58096;DHT22;43908;53.038;6.666;2022-08-03T16:08:14;30.70;80.90
58096;DHT22;43908;53.038;6.666;2022-08-03T16:10:39;30.60;79.20
58096;DHT22;43908;53.038;6.666;2022-08-03T16:13:05;30.50;77.80
58096;DHT22;43908;53.038;6.666;2022-08-03T16:15:31;30.50;77.90
58096;DHT22;43908;53.038;6.666;2022-08-03T16:17:56;30.40;78.60
58096;DHT22;43908;53.038;6.666;2022-08-03T16:20:22;30.20;79.30